createdAt,value
2018-09-05T00:01:56.017Z,15.10
2018-09-05T00:04:23.507Z,15.08
2018-09-05T00:06:50.953Z,15.05
2018-09-05T00:09:18.415Z,15.03
2018-09-05T00:11:45.910Z,15.00
2018-09-05T00:14:13.537Z,15.00
2018-09-05T00:16:41.042Z,14.99
2018-09-05T00:19:08.590Z,14.97
2018-09-05T00:21:36.037Z,14.96
2018-09-05T00:24:03.555Z,14.94
2018-09-05T00:26:31.047Z,14.93
2018-09-05T00:28:58.531Z,14.92
2018-09-05T00:31:26.026Z,14.92
2018-09-05T00:33:53.527Z,14.91
2018-09-05T00:36:21.009Z,14.89
2018-09-05T00:38:48.478Z,14.87
2018-09-05T00:41:15.963Z,14.85
2018-09-05T00:43:43.456Z,14.81
2018-09-05T00:46:10.880Z,14.80
2018-09-05T00:48:38.394Z,14.79
2018-09-05T00:51:05.897Z,14.78
2018-09-05T00:53:33.635Z,14.78
2018-09-05T00:56:01.066Z,14.78
2018-09-05T00:58:28.536Z,14.79
2018-09-05T01:00:55.959Z,14.78
2018-09-05T01:03:23.435Z,14.76
2018-09-05T01:05:50.868Z,14.74
2018-09-05T01:08:18.311Z,14.75
2018-09-05T01:10:45.785Z,14.72
2018-09-05T01:13:13.241Z,14.71
2018-09-05T01:15:41.411Z,14.72
2018-09-05T01:18:08.888Z,14.71
2018-09-05T01:20:36.433Z,14.70
2018-09-05T01:23:03.872Z,14.68
2018-09-05T01:25:31.328Z,14.69
2018-09-05T01:27:58.754Z,14.69
2018-09-05T01:30:27.507Z,14.68
2018-09-05T01:32:55.326Z,14.68
2018-09-05T01:35:22.848Z,14.68
2018-09-05T01:37:50.384Z,14.66
2018-09-05T01:40:17.864Z,14.62
2018-09-05T01:42:45.460Z,14.60
2018-09-05T01:45:12.909Z,14.59
2018-09-05T01:47:40.381Z,14.57
2018-09-05T01:50:07.891Z,14.53
2018-09-05T01:52:35.369Z,14.53
2018-09-05T01:55:03.014Z,14.51
2018-09-05T01:57:30.404Z,14.51
2018-09-05T01:59:57.873Z,14.51
2018-09-05T02:02:25.342Z,14.47
2018-09-05T02:04:53.550Z,14.47
2018-09-05T02:07:21.013Z,14.47
2018-09-05T02:09:48.531Z,14.45
2018-09-05T02:12:16.040Z,14.45
2018-09-05T02:14:43.755Z,14.36
2018-09-05T02:17:11.439Z,14.43
2018-09-05T02:19:38.907Z,14.42
2018-09-05T02:22:06.399Z,14.41
2018-09-05T02:24:33.832Z,14.39
2018-09-05T02:27:01.338Z,14.35
2018-09-05T02:29:28.776Z,14.33
2018-09-05T02:31:56.254Z,14.31
2018-09-05T02:34:23.762Z,14.29
2018-09-05T02:36:51.290Z,14.24
2018-09-05T02:39:18.771Z,14.21
2018-09-05T02:41:46.164Z,14.17
2018-09-05T02:44:19.136Z,14.13
2018-09-05T02:46:46.682Z,14.08
2018-09-05T02:49:14.321Z,14.03
2018-09-05T02:51:41.883Z,14.00
2018-09-05T02:54:09.347Z,13.97
2018-09-05T02:56:37.055Z,13.94
2018-09-05T02:59:04.562Z,13.90
2018-09-05T03:01:32.024Z,13.85
2018-09-05T03:03:59.497Z,13.80
2018-09-05T03:06:26.969Z,13.76
2018-09-05T03:08:54.500Z,13.74
2018-09-05T03:11:22.055Z,13.71
2018-09-05T03:13:49.459Z,13.69
2018-09-05T03:16:16.955Z,13.65
2018-09-05T03:18:44.607Z,13.63
2018-09-05T03:21:12.038Z,13.60
2018-09-05T03:23:39.616Z,13.56
2018-09-05T03:26:07.052Z,13.52
2018-09-05T03:28:34.619Z,13.48
2018-09-05T03:31:02.142Z,13.45
2018-09-05T03:33:29.650Z,13.41
2018-09-05T03:35:57.179Z,13.40
2018-09-05T03:38:24.669Z,13.39
2018-09-05T03:40:52.121Z,13.38
2018-09-05T03:43:19.628Z,13.38
2018-09-05T03:45:47.085Z,13.36
2018-09-05T03:48:14.557Z,13.35
2018-09-05T03:50:42.041Z,13.35
2018-09-05T03:53:09.488Z,13.32
2018-09-05T03:55:36.946Z,13.32
2018-09-05T03:58:04.623Z,13.28
2018-09-05T04:00:33.409Z,13.27
2018-09-05T04:03:01.149Z,13.25
2018-09-05T04:05:28.675Z,13.25
2018-09-05T04:07:56.205Z,13.25
2018-09-05T04:10:23.672Z,13.25
2018-09-05T04:12:51.123Z,13.24
2018-09-05T04:15:18.637Z,13.23
2018-09-05T04:17:46.109Z,13.22
2018-09-05T04:20:13.704Z,13.21
2018-09-05T04:22:41.227Z,13.20
2018-09-05T04:25:08.713Z,13.20
2018-09-05T04:27:36.226Z,13.18
2018-09-05T04:30:03.778Z,13.16
2018-09-05T04:32:31.209Z,13.14
2018-09-05T04:34:58.677Z,13.10
2018-09-05T04:37:26.109Z,13.09
2018-09-05T04:39:53.550Z,13.08
2018-09-05T04:42:20.978Z,13.08
2018-09-05T04:44:48.387Z,13.06
2018-09-05T04:47:15.909Z,13.04
2018-09-05T04:49:43.327Z,13.03
2018-09-05T04:52:10.809Z,13.01
2018-09-05T04:54:38.244Z,13.01
2018-09-05T04:57:05.701Z,13.01
2018-09-05T04:59:33.582Z,13.01
2018-09-05T05:02:01.175Z,13.04
2018-09-05T05:04:28.723Z,13.04
2018-09-05T05:06:56.226Z,13.04
2018-09-05T05:09:23.658Z,13.04
2018-09-05T05:11:51.143Z,13.05
2018-09-05T05:14:18.701Z,13.04
2018-09-05T05:16:46.219Z,13.03
2018-09-05T05:19:13.694Z,13.04
2018-09-05T05:21:41.401Z,13.06
2018-09-05T05:24:08.802Z,13.07
2018-09-05T05:26:36.271Z,13.10
2018-09-05T05:29:03.803Z,13.13
2018-09-05T05:31:31.311Z,13.18
2018-09-05T05:33:58.744Z,13.21
2018-09-05T05:36:26.181Z,13.27
2018-09-05T05:38:53.673Z,13.31
2018-09-05T05:41:21.148Z,13.37
2018-09-05T05:43:48.706Z,13.42
2018-09-05T05:46:16.384Z,13.48
2018-09-05T05:48:43.876Z,13.54
2018-09-05T05:51:11.312Z,13.60
2018-09-05T05:53:38.820Z,13.66
2018-09-05T05:56:06.362Z,13.73
2018-09-05T05:58:33.864Z,13.81
2018-09-05T06:01:01.606Z,13.87
2018-09-05T06:03:29.145Z,13.93
2018-09-05T06:05:56.651Z,14.00
2018-09-05T06:08:24.130Z,14.06
2018-09-05T06:10:51.635Z,14.12
2018-09-05T06:13:19.068Z,14.16
2018-09-05T06:15:46.562Z,14.20
2018-09-05T06:18:14.072Z,14.24
2018-09-05T06:20:41.540Z,14.29
2018-09-05T06:23:09.204Z,14.32
2018-09-05T06:25:36.686Z,14.34
2018-09-05T06:28:04.116Z,14.33
2018-09-05T06:30:31.700Z,14.41
2018-09-05T06:32:59.118Z,14.44
2018-09-05T06:35:26.556Z,14.46
2018-09-05T06:37:54.008Z,14.49
2018-09-05T06:41:08.293Z,14.59
2018-09-05T06:43:35.759Z,14.63
2018-09-05T06:46:03.155Z,14.67
2018-09-05T06:48:30.632Z,14.72
2018-09-05T06:51:05.706Z,14.75
2018-09-05T06:53:33.368Z,14.80
2018-09-05T06:56:01.055Z,14.84
2018-09-05T06:58:28.590Z,14.86
2018-09-05T07:00:56.006Z,14.91
2018-09-05T07:03:23.857Z,14.94
2018-09-05T07:05:51.354Z,14.96
2018-09-05T07:08:18.782Z,15.02
2018-09-05T07:10:46.362Z,15.06
2018-09-05T07:13:13.835Z,15.10
2018-09-05T07:15:41.359Z,15.12
2018-09-05T07:18:08.770Z,15.16
2018-09-05T07:20:36.251Z,15.20
2018-09-05T07:23:03.752Z,15.26
2018-09-05T07:25:31.473Z,15.29
2018-09-05T07:27:58.980Z,15.35
2018-09-05T07:30:26.493Z,15.39
2018-09-05T07:32:53.883Z,15.45
2018-09-05T07:35:21.322Z,15.52
2018-09-05T07:37:48.978Z,15.56
2018-09-05T07:40:16.490Z,15.60
2018-09-05T07:42:43.928Z,15.63
2018-09-05T07:45:11.515Z,15.67
2018-09-05T07:47:38.958Z,15.71
2018-09-05T07:50:06.714Z,15.76
2018-09-05T07:52:34.144Z,15.81
2018-09-05T07:55:01.588Z,15.88
2018-09-05T07:57:29.087Z,15.94
2018-09-05T07:59:56.535Z,16.00
2018-09-05T08:02:24.048Z,16.05
2018-09-05T08:04:51.885Z,16.08
2018-09-05T08:07:19.379Z,16.11
2018-09-05T08:09:46.870Z,16.14
2018-09-05T08:12:14.343Z,16.21
2018-09-05T08:14:41.783Z,16.28
2018-09-05T08:17:09.409Z,16.33
2018-09-05T08:19:36.831Z,16.41
2018-09-05T08:22:04.266Z,16.45
2018-09-05T08:24:31.762Z,16.51
2018-09-05T08:26:59.453Z,16.55
2018-09-05T08:29:26.893Z,16.59
2018-09-05T08:31:54.439Z,16.65
2018-09-05T08:34:21.918Z,16.69
2018-09-05T08:36:49.507Z,16.71
2018-09-05T08:39:16.843Z,16.78
2018-09-05T08:41:44.325Z,16.83
2018-09-05T08:44:12.018Z,16.87
2018-09-05T08:46:39.302Z,16.93
2018-09-05T08:49:06.952Z,17.00
2018-09-05T08:51:34.440Z,17.05
2018-09-05T08:54:01.960Z,17.10
2018-09-05T08:56:29.563Z,17.16
2018-09-05T08:58:57.173Z,17.22
2018-09-05T09:01:24.552Z,17.29
2018-09-05T09:03:52.071Z,17.36
2018-09-05T09:06:19.669Z,17.41
2018-09-05T09:08:47.132Z,17.45
2018-09-05T09:11:21.253Z,17.50
2018-09-05T09:13:48.733Z,17.55
2018-09-05T09:16:16.223Z,17.60
2018-09-05T09:18:43.697Z,17.69
2018-09-05T09:21:11.182Z,17.73
2018-09-05T09:23:38.667Z,17.82
2018-09-05T09:26:06.564Z,17.90
2018-09-05T09:28:34.175Z,17.99
2018-09-05T09:31:01.768Z,18.04
2018-09-05T09:33:29.254Z,18.13
2018-09-05T09:35:56.799Z,18.23
2018-09-05T09:38:24.320Z,18.33
2018-09-05T09:40:51.744Z,18.37
2018-09-05T09:43:19.328Z,18.42
2018-09-05T09:45:46.801Z,18.50
2018-09-05T09:48:14.270Z,18.63
2018-09-05T09:50:41.742Z,18.74
2018-09-05T09:53:09.262Z,18.85
2018-09-05T09:55:36.737Z,19.04
2018-09-05T09:58:04.570Z,19.34
2018-09-05T10:00:37.757Z,19.66
2018-09-05T10:03:10.915Z,20.01
2018-09-05T10:05:43.800Z,20.33
2018-09-05T10:08:16.731Z,20.62
2018-09-05T10:10:49.790Z,20.82
2018-09-05T10:13:22.689Z,21.03
2018-09-05T10:15:55.756Z,21.25
2018-09-05T10:18:27.683Z,21.40
2018-09-05T10:20:55.992Z,21.58
2018-09-05T10:23:23.450Z,21.72
2018-09-05T10:25:51.150Z,21.79
2018-09-05T10:28:18.620Z,21.87
2018-09-05T10:30:46.619Z,21.92
2018-09-05T10:33:14.232Z,22.06
2018-09-05T10:35:41.773Z,22.15
2018-09-05T10:38:09.252Z,22.15
2018-09-05T10:40:36.940Z,22.10
2018-09-05T10:43:04.534Z,22.17
2018-09-05T10:45:32.000Z,22.23
2018-09-05T10:47:59.809Z,22.27
2018-09-05T10:50:27.334Z,22.26
2018-09-05T10:52:55.763Z,22.30
2018-09-05T10:55:23.370Z,22.40
2018-09-05T10:57:51.039Z,22.53
2018-09-05T11:00:18.602Z,22.64
2018-09-05T11:02:46.215Z,22.65
2018-09-05T11:05:13.632Z,22.69
2018-09-05T11:07:41.180Z,22.80
2018-09-05T11:10:08.805Z,22.84
2018-09-05T11:12:36.242Z,22.90
2018-09-05T11:15:03.909Z,22.97
2018-09-05T11:17:31.703Z,22.97
2018-09-05T11:19:59.116Z,22.99
2018-09-05T11:22:26.598Z,23.07
2018-09-05T11:24:54.285Z,23.15
2018-09-05T11:27:21.894Z,23.29
2018-09-05T11:29:49.353Z,23.26
2018-09-05T11:32:17.303Z,23.22
2018-09-05T11:34:44.840Z,23.30
2018-09-05T11:37:12.292Z,23.36
2018-09-05T11:39:39.977Z,23.37
2018-09-05T11:42:07.425Z,23.48
2018-09-05T11:44:34.898Z,23.59
2018-09-05T11:47:02.604Z,23.68
2018-09-05T11:49:30.113Z,23.67
2018-09-05T11:51:57.603Z,23.76
2018-09-05T11:54:25.293Z,23.88
2018-09-05T11:56:52.754Z,23.93
2018-09-05T11:59:20.238Z,23.90
2018-09-05T12:01:47.875Z,23.97
2018-09-05T12:04:15.333Z,24.05
2018-09-05T12:06:42.802Z,24.13
2018-09-05T12:09:11.418Z,24.12
2018-09-05T12:11:39.034Z,24.11
2018-09-05T12:14:06.870Z,24.16
2018-09-05T12:16:35.616Z,24.22
2018-09-05T12:19:03.246Z,24.15
2018-09-05T12:21:30.699Z,24.05
2018-09-05T12:23:58.309Z,23.97
2018-09-05T12:26:25.778Z,23.97
2018-09-05T12:28:53.346Z,24.06
2018-09-05T12:31:20.943Z,24.12
2018-09-05T12:33:48.615Z,24.19
2018-09-05T12:36:16.124Z,24.30
2018-09-05T12:38:43.739Z,24.43
2018-09-05T12:41:11.241Z,24.47
2018-09-05T12:43:38.633Z,24.38
2018-09-05T12:46:06.359Z,24.27
2018-09-05T12:48:33.843Z,24.28
2018-09-05T12:51:01.403Z,24.25
2018-09-05T12:53:29.113Z,23.99
2018-09-05T12:55:56.604Z,24.24
2018-09-05T12:58:24.072Z,24.26
2018-09-05T13:00:51.796Z,24.28
2018-09-05T13:03:19.277Z,24.23
2018-09-05T13:05:46.706Z,24.18
2018-09-05T13:08:14.264Z,24.10
2018-09-05T13:10:41.650Z,24.03
2018-09-05T13:13:09.129Z,23.96
2018-09-05T13:15:36.868Z,23.90
2018-09-05T13:18:04.306Z,23.83
2018-09-05T13:20:31.838Z,23.75
2018-09-05T13:22:59.530Z,23.72
2018-09-05T13:25:27.003Z,23.66
2018-09-05T13:27:54.466Z,23.57
2018-09-05T13:30:22.033Z,23.40
2018-09-05T13:32:49.508Z,23.18
2018-09-05T13:35:17.386Z,22.99
2018-09-05T13:37:45.124Z,22.80
2018-09-05T13:40:12.517Z,22.58
2018-09-05T13:42:40.023Z,22.38
2018-09-05T13:45:07.683Z,22.24
2018-09-05T13:47:35.238Z,22.07
2018-09-05T13:50:02.882Z,21.91
2018-09-05T13:52:30.564Z,21.72
2018-09-05T13:54:57.986Z,21.54
2018-09-05T13:57:25.427Z,21.39
2018-09-05T13:59:53.015Z,21.29
2018-09-05T14:02:20.440Z,21.24
2018-09-05T14:04:47.894Z,21.14
2018-09-05T14:07:15.615Z,21.07
2018-09-05T14:09:43.075Z,20.99
2018-09-05T14:12:10.520Z,20.92
2018-09-05T14:18:08.438Z,20.62
2018-09-05T14:20:36.283Z,20.43
2018-09-05T14:23:34.557Z,20.36
2018-09-05T14:26:02.185Z,20.27
2018-09-05T14:28:29.606Z,20.16
2018-09-05T14:30:57.523Z,20.11
2018-09-05T14:33:25.318Z,20.08
2018-09-05T14:35:53.145Z,20.06
2018-09-05T14:38:20.577Z,19.99
2018-09-05T14:40:48.320Z,19.91
2018-09-05T14:43:15.792Z,19.81
2018-09-05T14:45:43.267Z,19.75
2018-09-05T14:48:10.916Z,19.67
2018-09-05T14:50:38.390Z,19.60
2018-09-05T14:53:05.860Z,19.55
2018-09-05T14:55:33.614Z,19.48
2018-09-05T14:58:01.125Z,19.39
2018-09-05T15:00:28.685Z,19.35
2018-09-05T15:02:56.385Z,19.04
2018-09-05T15:05:23.867Z,19.15
2018-09-05T15:07:51.902Z,19.08
2018-09-05T15:10:19.561Z,18.99
2018-09-05T15:12:47.083Z,18.95
2018-09-05T15:15:15.069Z,18.93
2018-09-05T15:17:42.714Z,18.90
2018-09-05T15:20:10.784Z,18.88
2018-09-05T15:22:38.458Z,18.83
2018-09-05T15:25:06.535Z,18.83
2018-09-05T15:27:34.035Z,18.81
2018-09-05T15:30:01.496Z,18.80
2018-09-05T15:32:29.259Z,18.76
2018-09-05T15:34:56.773Z,18.74
2018-09-05T15:37:24.515Z,18.66
2018-09-05T15:39:52.081Z,18.62
2018-09-05T15:42:19.557Z,18.56
2018-09-05T15:44:47.056Z,18.51
2018-09-05T15:47:14.753Z,18.43
2018-09-05T15:49:42.726Z,18.35
2018-09-05T15:52:10.168Z,18.28
2018-09-05T15:54:37.768Z,18.21
2018-09-05T15:57:05.854Z,18.21
2018-09-05T15:59:33.308Z,18.17
2018-09-05T16:02:01.129Z,18.11
2018-09-05T16:04:28.599Z,18.09
2018-09-05T16:06:56.090Z,18.08
2018-09-05T16:09:23.739Z,18.06
2018-09-05T16:11:51.184Z,18.06
2018-09-05T16:14:18.660Z,18.01
2018-09-05T16:16:46.289Z,18.00
2018-09-05T16:19:13.735Z,17.98
2018-09-05T16:21:41.162Z,17.97
2018-09-05T16:24:08.908Z,17.86
2018-09-05T16:26:36.348Z,17.85
2018-09-05T16:29:03.944Z,17.84
2018-09-05T16:31:31.595Z,17.81
2018-09-05T16:33:59.028Z,17.78
2018-09-05T16:36:26.640Z,17.66
2018-09-05T16:38:54.600Z,17.56
2018-09-05T16:41:22.063Z,17.50
2018-09-05T16:43:49.579Z,17.43
2018-09-05T16:46:17.262Z,17.36
2018-09-05T16:48:44.722Z,17.31
2018-09-05T16:52:15.171Z,17.30
2018-09-05T16:54:42.631Z,17.27
2018-09-05T16:57:10.092Z,17.20
2018-09-05T16:59:37.878Z,17.19
2018-09-05T17:02:05.529Z,17.16
2018-09-05T17:04:33.072Z,17.14
2018-09-05T17:07:00.727Z,17.11
2018-09-05T17:09:28.185Z,17.08
2018-09-05T17:11:55.665Z,17.06
2018-09-05T17:14:23.392Z,17.04
2018-09-05T17:16:50.958Z,16.99
2018-09-05T17:19:18.387Z,16.90
2018-09-05T17:21:45.970Z,16.85
2018-09-05T17:24:13.498Z,16.82
2018-09-05T17:26:40.964Z,16.77
2018-09-05T17:29:08.626Z,16.67
2018-09-05T17:31:36.129Z,16.55
2018-09-05T17:34:04.232Z,16.45
2018-09-05T17:36:31.919Z,16.36
2018-09-05T17:38:59.652Z,16.25
2018-09-05T17:41:27.092Z,16.22
2018-09-05T17:43:54.812Z,16.19
2018-09-05T17:46:22.301Z,16.17
2018-09-05T17:48:49.806Z,16.13
2018-09-05T17:51:17.414Z,16.12
2018-09-05T17:53:44.897Z,16.12
2018-09-05T17:56:12.355Z,16.11
2018-09-05T17:58:39.956Z,16.12
2018-09-05T18:01:10.217Z,16.08
2018-09-05T18:03:37.700Z,16.05
2018-09-05T18:06:05.953Z,16.01
2018-09-05T18:08:33.480Z,15.94
2018-09-05T18:11:00.991Z,15.89
2018-09-05T18:13:28.656Z,15.83
2018-09-05T18:15:56.115Z,15.81
2018-09-05T18:18:23.674Z,15.80
2018-09-05T18:20:51.367Z,15.79
2018-09-05T18:23:18.881Z,15.78
2018-09-05T18:25:46.342Z,15.77
2018-09-05T18:28:14.082Z,15.75
2018-09-05T18:30:41.476Z,15.75
2018-09-05T18:33:08.958Z,15.74
2018-09-05T18:35:36.675Z,15.70
2018-09-05T18:38:04.388Z,15.67
2018-09-05T18:40:32.001Z,15.64
2018-09-05T18:42:59.538Z,15.63
2018-09-05T18:45:26.971Z,15.60
2018-09-05T18:47:54.492Z,15.58
2018-09-05T18:50:22.048Z,15.53
2018-09-05T18:52:54.067Z,15.50
2018-09-05T18:55:21.570Z,15.47
2018-09-05T18:57:49.263Z,15.43
2018-09-05T19:00:16.751Z,15.40
2018-09-05T19:02:44.172Z,15.38
2018-09-05T19:07:46.015Z,15.34
2018-09-05T19:10:13.731Z,15.32
2018-09-05T19:12:41.170Z,15.29
2018-09-05T19:15:08.721Z,15.25
2018-09-05T19:17:36.469Z,15.21
2018-09-05T19:20:04.019Z,15.16
2018-09-05T19:22:31.585Z,15.09
2018-09-05T19:24:59.146Z,15.04
2018-09-05T19:27:26.616Z,15.01
2018-09-05T19:29:54.142Z,14.97
2018-09-05T19:32:21.825Z,14.95
2018-09-05T19:34:49.297Z,14.93
2018-09-05T19:37:16.914Z,14.90
2018-09-05T19:39:45.131Z,14.89
2018-09-05T19:42:12.941Z,14.84
2018-09-05T19:44:40.393Z,14.79
2018-09-05T19:47:08.308Z,14.74
2018-09-05T19:49:35.804Z,14.70
2018-09-05T19:52:03.298Z,14.68
2018-09-05T19:54:30.969Z,14.65
2018-09-05T19:56:58.462Z,14.65
2018-09-05T19:59:26.000Z,14.63
2018-09-05T20:01:53.687Z,14.63
2018-09-05T20:04:21.301Z,14.60
2018-09-05T20:06:49.116Z,14.57
2018-09-05T20:09:16.810Z,14.52
2018-09-05T20:11:44.319Z,14.49
2018-09-05T20:14:11.840Z,14.45
2018-09-05T20:16:39.699Z,14.41
2018-09-05T20:19:07.110Z,14.39
2018-09-05T20:21:34.581Z,14.34
2018-09-05T20:24:02.662Z,14.32
2018-09-05T20:26:30.082Z,14.29
2018-09-05T20:28:57.599Z,14.22
2018-09-05T20:31:25.293Z,14.16
2018-09-05T20:33:52.864Z,14.12
2018-09-05T20:36:20.334Z,14.09
2018-09-05T20:38:47.994Z,14.06
2018-09-05T20:41:15.452Z,14.02
2018-09-05T20:43:43.199Z,14.03
2018-09-05T20:46:10.755Z,14.01
2018-09-05T20:48:38.197Z,13.98
2018-09-05T20:51:05.651Z,13.94
2018-09-05T20:53:33.252Z,13.88
2018-09-05T20:56:00.773Z,13.86
2018-09-05T20:58:28.323Z,13.86
2018-09-05T21:00:55.937Z,13.86
2018-09-05T21:03:23.411Z,13.85
2018-09-05T21:05:50.877Z,13.83
2018-09-05T21:08:18.396Z,13.84
2018-09-05T21:10:45.860Z,13.84
2018-09-05T21:13:13.344Z,13.82
2018-09-05T21:15:41.057Z,13.80
2018-09-05T21:18:08.583Z,13.78
2018-09-05T21:20:35.956Z,13.73
2018-09-05T21:23:03.674Z,13.69
2018-09-05T21:25:31.121Z,13.67
2018-09-05T21:27:58.569Z,13.67
2018-09-05T21:30:26.930Z,13.64
2018-09-05T21:32:54.377Z,13.64
2018-09-05T21:35:21.895Z,13.64
2018-09-05T21:37:49.500Z,13.64
2018-09-05T21:40:16.925Z,13.62
2018-09-05T21:43:47.305Z,13.61
2018-09-05T21:46:14.738Z,13.57
2018-09-05T21:48:42.307Z,13.54
2018-09-05T21:51:09.937Z,13.50
2018-09-05T21:53:38.193Z,13.47
2018-09-05T21:56:05.778Z,13.46
2018-09-05T21:58:33.414Z,13.42
2018-09-05T22:01:00.837Z,13.41
2018-09-05T22:03:28.264Z,13.39
2018-09-05T22:05:55.824Z,13.36
2018-09-05T22:08:23.311Z,13.34
2018-09-05T22:10:50.745Z,13.31
2018-09-05T22:13:18.462Z,13.28
2018-09-05T22:15:46.912Z,13.25
2018-09-05T22:18:15.020Z,13.21
2018-09-05T22:20:42.687Z,13.19
2018-09-05T22:23:10.187Z,13.16
2018-09-05T22:25:37.679Z,13.14
2018-09-05T22:28:05.299Z,13.12
2018-09-05T22:30:33.263Z,13.07
2018-09-05T22:33:01.138Z,13.05
2018-09-05T22:35:28.772Z,13.04
2018-09-05T22:37:56.289Z,13.02
2018-09-05T22:40:23.795Z,13.02
2018-09-05T22:43:02.730Z,13.01
2018-09-05T22:45:41.578Z,12.99
2018-09-05T22:48:26.023Z,12.96
2018-09-05T22:53:15.704Z,12.94
2018-09-05T22:57:09.721Z,12.54
2018-09-05T22:59:46.642Z,12.88
2018-09-05T23:04:27.083Z,12.88
2018-09-05T23:09:07.999Z,12.85
2018-09-05T23:11:59.458Z,12.81
2018-09-05T23:14:39.271Z,12.80
2018-09-05T23:17:18.182Z,12.83
2018-09-05T23:19:57.772Z,12.82
2018-09-05T23:22:32.784Z,12.83
2018-09-05T23:25:00.503Z,12.83
2018-09-05T23:27:27.990Z,12.83
2018-09-05T23:29:55.475Z,12.82
2018-09-05T23:32:23.192Z,12.83
2018-09-05T23:34:50.617Z,12.82
2018-09-05T23:37:18.146Z,12.80
2018-09-05T23:39:45.751Z,12.80
2018-09-05T23:42:13.219Z,12.79
2018-09-05T23:44:40.760Z,12.79
2018-09-05T23:47:08.641Z,12.80
2018-09-05T23:49:36.106Z,12.80
2018-09-05T23:52:03.618Z,12.78
2018-09-05T23:54:31.230Z,12.77
2018-09-05T23:56:58.788Z,12.76
2018-09-05T23:59:26.285Z,12.75
